Time;durP1;ratioP1;P1;durP2;ratioP2;P2;SDS_P1;SDS_P2;PMS_P1;PMS_P2;Temp;Humidity;BMP_temperature;BMP_pressure;BME280_temperature;BME280_humidity;BME280_pressure;Samples;Min_cycle;Max_cycle;Signal;HPM_P1;HPM_P2
2022/03/07 00:01:25;;;;;;;7.80;5.40;;;;;;;;;;6246847;22;20420;-73
2022/03/07 00:03:53;;;;;;;10.30;5.50;;;;;;;;;;6247672;22;20428;-73
2022/03/07 00:06:20;;;;;;;10.07;5.60;;;;;;;;;;6247807;22;20471;-73
2022/03/07 00:08:49;;;;;;;7.97;4.77;;;;;;;;;;6248687;22;20507;-73
2022/03/07 00:11:17;;;;;;;11.87;5.67;;;;;;;;;;6249004;22;20402;-72
2022/03/07 00:13:46;;;;;;;6.40;4.70;;;;;;;;;;6248528;22;20457;-73
2022/03/07 00:16:15;;;;;;;8.43;5.77;;;;;;;;;;6248140;22;20409;-72
2022/03/07 00:18:51;;;;;;;9.03;5.63;;;;;;;;;;6247920;22;20452;-73
2022/03/07 00:21:19;;;;;;;8.47;5.27;;;;;;;;;;6248129;22;20788;-73
2022/03/07 00:23:47;;;;;;;9.63;5.50;;;;;;;;;;6248232;22;20467;-73
2022/03/07 00:26:15;;;;;;;8.43;5.63;;;;;;;;;;6247574;22;20866;-73
2022/03/07 00:28:43;;;;;;;8.00;4.37;;;;;;;;;;6247816;22;20798;-73
2022/03/07 00:31:12;;;;;;;8.53;5.13;;;;;;;;;;6248333;22;20413;-73
2022/03/07 00:33:43;;;;;;;11.20;4.70;;;;;;;;;;6248570;22;20483;-73
2022/03/07 00:36:11;;;;;;;13.33;5.73;;;;;;;;;;6248274;22;20413;-73
2022/03/07 00:38:38;;;;;;;11.50;7.30;;;;;;;;;;6248062;22;20495;-73
2022/03/07 00:41:10;;;;;;;5.77;5.27;;;;;;;;;;6245931;22;20484;-73
2022/03/07 00:43:46;;;;;;;10.03;6.13;;;;;;;;;;6247644;22;20831;-73
2022/03/07 00:46:19;;;;;;;7.70;5.60;;;;;;;;;;6247567;22;20413;-73
2022/03/07 00:48:47;;;;;;;10.83;5.43;;;;;;;;;;6247320;22;20440;-73
2022/03/07 00:51:15;;;;;;;8.40;5.40;;;;;;;;;;6247150;22;20417;-73
2022/03/07 00:53:43;;;;;;;9.10;4.60;;;;;;;;;;6247772;22;20426;-73
2022/03/07 00:56:11;;;;;;;5.87;5.27;;;;;;;;;;6248815;22;20520;-73
2022/03/07 00:58:39;;;;;;;11.13;7.00;;;;;;;;;;6247751;22;20404;-73
2022/03/07 01:01:06;;;;;;;10.50;4.97;;;;;;;;;;6247680;22;20421;-73
2022/03/07 01:03:42;;;;;;;6.57;4.60;;;;;;;;;;6246958;22;20443;-73
2022/03/07 01:06:13;;;;;;;8.20;5.00;;;;;;;;;;6247861;22;20431;-73
2022/03/07 01:08:41;;;;;;;10.03;5.13;;;;;;;;;;6248040;22;20437;-72
2022/03/07 01:11:09;;;;;;;7.97;5.40;;;;;;;;;;6249295;22;20416;-73
2022/03/07 01:13:36;;;;;;;6.40;4.23;;;;;;;;;;6249125;22;20504;-73
2022/03/07 01:16:04;;;;;;;9.33;6.33;;;;;;;;;;6249314;22;20835;-72
2022/03/07 01:18:32;;;;;;;10.37;4.87;;;;;;;;;;6249080;22;20459;-72
2022/03/07 01:21:04;;;;;;;7.87;5.40;;;;;;;;;;6250450;22;20424;-72
2022/03/07 01:23:32;;;;;;;7.87;5.07;;;;;;;;;;6249338;22;20853;-72
2022/03/07 01:26:00;;;;;;;6.43;5.50;;;;;;;;;;6249828;22;20421;-72
2022/03/07 01:28:28;;;;;;;8.63;5.10;;;;;;;;;;6248414;22;20441;-72
2022/03/07 01:30:56;;;;;;;7.70;4.87;;;;;;;;;;6248582;22;20420;-72
2022/03/07 01:33:23;;;;;;;8.67;5.27;;;;;;;;;;6249388;22;20467;-72
2022/03/07 01:35:52;;;;;;;9.17;6.00;;;;;;;;;;6249410;22;20413;-72
2022/03/07 01:38:21;;;;;;;10.67;5.47;;;;;;;;;;6249848;22;20413;-72
2022/03/07 01:40:50;;;;;;;9.20;4.80;;;;;;;;;;6251160;22;20503;-73
2022/03/07 01:43:18;;;;;;;9.03;5.43;;;;;;;;;;6249327;22;20423;-72
2022/03/07 01:45:46;;;;;;;8.93;5.40;;;;;;;;;;6250181;22;20396;-72
2022/03/07 01:48:14;;;;;;;10.60;6.50;;;;;;;;;;6248911;22;20417;-72
2022/03/07 01:50:41;;;;;;;10.40;6.37;;;;;;;;;;6250145;22;20409;-73
2022/03/07 01:53:10;;;;;;;9.60;5.27;;;;;;;;;;6251066;22;20439;-72
2022/03/07 01:55:44;;;;;;;6.50;5.00;;;;;;;;;;6249122;22;20495;-73
2022/03/07 01:58:12;;;;;;;11.07;6.80;;;;;;;;;;6250726;22;20660;-73
2022/03/07 02:00:40;;;;;;;11.77;6.30;;;;;;;;;;6249597;22;20671;-73
2022/03/07 02:03:10;;;;;;;8.40;6.40;;;;;;;;;;6249335;22;20496;-73
2022/03/07 02:05:38;;;;;;;9.83;6.73;;;;;;;;;;6248512;22;20409;-73
2022/03/07 02:08:06;;;;;;;9.10;5.10;;;;;;;;;;6250467;22;20405;-73
2022/03/07 02:10:34;;;;;;;10.87;5.13;;;;;;;;;;6248881;22;20850;-73
2022/03/07 02:13:13;;;;;;;9.80;5.70;;;;;;;;;;6249352;22;20417;-73
2022/03/07 02:15:44;;;;;;;8.77;5.20;;;;;;;;;;6248703;22;20440;-73
2022/03/07 02:18:12;;;;;;;8.47;5.37;;;;;;;;;;6249196;22;20417;-72
2022/03/07 02:20:43;;;;;;;8.80;5.33;;;;;;;;;;6248306;22;20712;-72
2022/03/07 02:23:12;;;;;;;7.20;5.00;;;;;;;;;;6248880;22;20743;-72
2022/03/07 02:25:40;;;;;;;12.10;6.10;;;;;;;;;;6249383;22;20409;-72
2022/03/07 02:28:07;;;;;;;10.10;4.47;;;;;;;;;;6248399;22;20420;-72
2022/03/07 02:30:35;;;;;;;8.43;4.93;;;;;;;;;;6249994;22;20445;-72
2022/03/07 02:33:03;;;;;;;7.17;4.90;;;;;;;;;;6249843;22;20401;-72
2022/03/07 02:35:31;;;;;;;8.30;5.50;;;;;;;;;;6248224;22;20517;-72
2022/03/07 02:37:58;;;;;;;12.93;6.90;;;;;;;;;;6248084;22;20706;-72
2022/03/07 02:40:27;;;;;;;9.13;5.40;;;;;;;;;;6248757;22;20448;-72
2022/03/07 02:42:55;;;;;;;13.33;6.70;;;;;;;;;;6248850;22;20427;-72
2022/03/07 02:45:23;;;;;;;7.90;6.10;;;;;;;;;;6249129;22;20424;-73
2022/03/07 02:47:51;;;;;;;9.10;5.47;;;;;;;;;;6248826;22;20428;-73
2022/03/07 02:50:19;;;;;;;7.20;4.87;;;;;;;;;;6248065;22;20448;-73
2022/03/07 02:52:46;;;;;;;8.10;4.90;;;;;;;;;;6249179;22;20479;-73
2022/03/07 02:55:14;;;;;;;10.50;5.73;;;;;;;;;;6248937;22;20854;-73
2022/03/07 02:57:43;;;;;;;9.10;5.93;;;;;;;;;;6249373;22;20421;-73
2022/03/07 03:00:12;;;;;;;12.40;6.63;;;;;;;;;;6249354;22;20444;-73
2022/03/07 03:02:40;;;;;;;15.43;7.87;;;;;;;;;;6249282;22;20490;-73
2022/03/07 03:05:08;;;;;;;16.33;7.80;;;;;;;;;;6249396;22;20413;-73
2022/03/07 03:07:36;;;;;;;10.63;6.83;;;;;;;;;;6249422;22;20471;-73
2022/03/07 03:10:04;;;;;;;11.60;8.20;;;;;;;;;;6248522;22;20444;-73
2022/03/07 03:12:31;;;;;;;11.30;7.50;;;;;;;;;;6248385;22;20703;-73
2022/03/07 03:15:01;;;;;;;11.73;8.03;;;;;;;;;;6248030;22;20861;-73
2022/03/07 03:17:31;;;;;;;19.47;8.60;;;;;;;;;;6249299;22;20421;-73
2022/03/07 03:19:59;;;;;;;17.73;9.40;;;;;;;;;;6248224;22;20425;-73
2022/03/07 03:22:26;;;;;;;16.20;10.73;;;;;;;;;;6249750;22;20434;-73
2022/03/07 03:24:54;;;;;;;17.20;11.00;;;;;;;;;;6248575;22;20420;-73
2022/03/07 03:27:22;;;;;;;18.40;10.63;;;;;;;;;;6248684;22;20460;-73
2022/03/07 03:29:49;;;;;;;21.37;11.47;;;;;;;;;;6247996;22;20884;-73
2022/03/07 03:32:19;;;;;;;28.73;14.57;;;;;;;;;;6248275;22;20436;-73
2022/03/07 03:34:47;;;;;;;21.33;11.20;;;;;;;;;;6248663;22;20414;-73
2022/03/07 03:37:14;;;;;;;28.73;14.50;;;;;;;;;;6249067;22;20427;-73
2022/03/07 03:39:42;;;;;;;22.53;12.80;;;;;;;;;;6248920;22;20413;-73
2022/03/07 03:42:10;;;;;;;28.60;15.33;;;;;;;;;;6247656;22;20700;-73
2022/03/07 03:44:37;;;;;;;25.60;14.03;;;;;;;;;;6248224;22;20854;-73
2022/03/07 03:47:05;;;;;;;32.73;15.23;;;;;;;;;;6248731;22;20444;-73
2022/03/07 03:49:35;;;;;;;34.57;16.33;;;;;;;;;;6247611;22;20531;-73
2022/03/07 03:52:03;;;;;;;33.97;17.10;;;;;;;;;;6248922;22;20448;-73
2022/03/07 03:54:31;;;;;;;40.17;18.53;;;;;;;;;;6248724;22;20669;-73
2022/03/07 03:56:59;;;;;;;37.00;16.83;;;;;;;;;;6248315;22;20519;-73
2022/03/07 03:59:26;;;;;;;36.70;17.67;;;;;;;;;;6248798;22;20417;-73
2022/03/07 04:01:54;;;;;;;33.47;17.40;;;;;;;;;;6247870;22;20482;-73
2022/03/07 04:04:22;;;;;;;36.57;18.50;;;;;;;;;;6247869;22;20456;-73
2022/03/07 04:06:51;;;;;;;34.83;17.30;;;;;;;;;;6247970;22;20702;-73
2022/03/07 04:09:19;;;;;;;39.20;19.43;;;;;;;;;;6247175;22;20763;-73
2022/03/07 04:11:47;;;;;;;42.17;20.37;;;;;;;;;;6247814;22;20427;-73
2022/03/07 04:14:15;;;;;;;38.03;20.03;;;;;;;;;;6247064;22;20415;-73
2022/03/07 04:16:43;;;;;;;45.03;20.97;;;;;;;;;;6248835;22;20819;-73
2022/03/07 04:19:12;;;;;;;43.40;23.03;;;;;;;;;;6246570;22;20500;-73
2022/03/07 04:21:41;;;;;;;45.60;20.43;;;;;;;;;;6247317;22;20515;-73
2022/03/07 04:24:10;;;;;;;42.20;22.73;;;;;;;;;;6247563;22;20755;-73
2022/03/07 04:26:38;;;;;;;42.47;21.23;;;;;;;;;;6247815;22;20680;-73
2022/03/07 04:29:08;;;;;;;45.90;20.40;;;;;;;;;;6246639;22;20524;-73
2022/03/07 04:31:36;;;;;;;49.00;25.50;;;;;;;;;;6248432;22;20413;-73
2022/03/07 04:34:03;;;;;;;45.07;20.33;;;;;;;;;;6247948;22;20417;-73
2022/03/07 04:36:32;;;;;;;42.13;19.80;;;;;;;;;;6247701;22;20758;-73
2022/03/07 04:38:59;;;;;;;46.37;19.70;;;;;;;;;;6247673;22;20424;-73
2022/03/07 04:41:29;;;;;;;40.90;21.10;;;;;;;;;;6246635;22;20408;-73
2022/03/07 04:43:59;;;;;;;34.33;17.07;;;;;;;;;;6247624;22;20860;-73
2022/03/07 04:46:30;;;;;;;46.53;18.43;;;;;;;;;;6247698;22;20503;-73
2022/03/07 04:49:02;;;;;;;40.20;18.50;;;;;;;;;;6247128;22;20409;-73
2022/03/07 04:51:30;;;;;;;48.17;21.97;;;;;;;;;;6246521;22;20495;-73
2022/03/07 04:53:57;;;;;;;36.00;17.47;;;;;;;;;;6247384;22;20417;-73
2022/03/07 04:56:25;;;;;;;50.83;20.10;;;;;;;;;;6247073;22;20429;-73
2022/03/07 04:58:56;;;;;;;48.73;22.70;;;;;;;;;;6247686;22;20425;-73
2022/03/07 05:01:24;;;;;;;39.10;17.90;;;;;;;;;;6248066;22;20455;-73
2022/03/07 05:03:52;;;;;;;40.53;18.80;;;;;;;;;;6247280;22;20496;-73
2022/03/07 05:06:19;;;;;;;36.67;15.53;;;;;;;;;;6247403;22;20435;-72
2022/03/07 05:08:47;;;;;;;44.30;20.70;;;;;;;;;;6247185;22;20409;-73
2022/03/07 05:11:15;;;;;;;37.30;19.13;;;;;;;;;;6246742;22;20449;-72
2022/03/07 05:13:45;;;;;;;34.90;18.57;;;;;;;;;;6247022;22;20414;-73
2022/03/07 05:16:14;;;;;;;33.63;17.03;;;;;;;;;;6247163;22;20474;-71
2022/03/07 05:18:42;;;;;;;36.30;18.33;;;;;;;;;;6246718;22;20425;-73
2022/03/07 05:21:10;;;;;;;33.77;16.80;;;;;;;;;;6248101;22;20494;-73
2022/03/07 05:23:38;;;;;;;35.17;18.77;;;;;;;;;;6246992;22;20413;-73
2022/03/07 05:26:08;;;;;;;30.20;15.07;;;;;;;;;;6247023;22;20425;-73
2022/03/07 05:28:36;;;;;;;37.63;17.10;;;;;;;;;;6245903;22;20492;-73
2022/03/07 05:31:04;;;;;;;33.60;17.70;;;;;;;;;;6247184;22;20455;-73
2022/03/07 05:33:33;;;;;;;37.30;18.43;;;;;;;;;;6246671;22;20414;-73
2022/03/07 05:36:01;;;;;;;34.73;17.60;;;;;;;;;;6247222;22;20421;-72
2022/03/07 05:38:31;;;;;;;39.27;20.37;;;;;;;;;;6247390;22;20843;-73
2022/03/07 05:40:59;;;;;;;35.60;18.37;;;;;;;;;;6246855;22;20432;-73
2022/03/07 05:43:27;;;;;;;39.83;17.53;;;;;;;;;;6245637;22;20413;-73
2022/03/07 05:45:58;;;;;;;33.03;15.10;;;;;;;;;;6246192;22;20417;-73
2022/03/07 05:48:26;;;;;;;35.57;18.87;;;;;;;;;;6245453;22;20413;-73
2022/03/07 05:50:55;;;;;;;39.40;19.63;;;;;;;;;;6246035;22;20547;-73
2022/03/07 05:53:26;;;;;;;38.73;20.33;;;;;;;;;;6246432;22;20390;-73
2022/03/07 05:55:54;;;;;;;39.70;19.90;;;;;;;;;;6247646;22;20425;-73
2022/03/07 05:58:22;;;;;;;35.03;16.37;;;;;;;;;;6247715;22;20409;-73
2022/03/07 06:00:49;;;;;;;40.60;21.57;;;;;;;;;;6246758;22;20508;-73
2022/03/07 06:03:19;;;;;;;36.60;17.60;;;;;;;;;;6248187;22;20691;-73
2022/03/07 06:05:47;;;;;;;27.60;18.30;;;;;;;;;;6245841;22;20409;-73
2022/03/07 06:08:20;;;;;;;33.30;18.10;;;;;;;;;;6247020;22;20461;-73
2022/03/07 06:10:48;;;;;;;39.00;17.87;;;;;;;;;;6246655;22;20448;-73
2022/03/07 06:13:16;;;;;;;37.30;15.17;;;;;;;;;;6246575;22;20490;-73
2022/03/07 06:15:44;;;;;;;22.20;12.10;;;;;;;;;;6246040;22;20604;-73
2022/03/07 06:18:12;;;;;;;28.53;14.67;;;;;;;;;;6247879;22;21175;-73
2022/03/07 06:20:44;;;;;;;35.57;15.80;;;;;;;;;;6246458;22;20424;-73
2022/03/07 06:23:12;;;;;;;35.37;15.50;;;;;;;;;;6247237;22;20456;-73
2022/03/07 06:25:41;;;;;;;33.27;15.53;;;;;;;;;;6246923;22;20428;-73
2022/03/07 06:28:11;;;;;;;27.93;15.27;;;;;;;;;;6246694;22;20539;-73
2022/03/07 06:30:43;;;;;;;24.77;15.60;;;;;;;;;;6247000;22;20440;-73
2022/03/07 06:33:11;;;;;;;32.30;16.50;;;;;;;;;;6243665;22;20711;-73
2022/03/07 06:35:39;;;;;;;40.73;19.67;;;;;;;;;;6244711;22;20421;-72
2022/03/07 06:38:07;;;;;;;58.20;30.27;;;;;;;;;;6244370;22;20923;-74
2022/03/07 06:40:35;;;;;;;32.70;18.50;;;;;;;;;;6246177;22;20469;-72
2022/03/07 06:43:09;;;;;;;34.33;17.43;;;;;;;;;;6244476;22;20440;-75
2022/03/07 06:45:37;;;;;;;34.27;15.80;;;;;;;;;;6242213;22;20444;-72
2022/03/07 06:48:05;;;;;;;35.87;17.50;;;;;;;;;;6243849;22;20889;-74
2022/03/07 06:50:33;;;;;;;40.20;18.83;;;;;;;;;;6244120;22;20445;-73
2022/03/07 06:53:01;;;;;;;43.17;19.10;;;;;;;;;;6245739;22;20453;-73
2022/03/07 06:55:31;;;;;;;37.90;17.47;;;;;;;;;;6246288;22;20417;-73
2022/03/07 06:57:59;;;;;;;37.07;18.37;;;;;;;;;;6245257;22;20421;-73
2022/03/07 07:00:31;;;;;;;41.30;19.30;;;;;;;;;;6244697;22;20433;-73
2022/03/07 07:03:01;;;;;;;36.20;16.93;;;;;;;;;;6247415;22;20467;-73
2022/03/07 07:05:29;;;;;;;36.90;19.97;;;;;;;;;;6246683;22;20408;-72
2022/03/07 07:08:00;;;;;;;38.03;20.00;;;;;;;;;;6246863;22;20409;-73
2022/03/07 07:10:29;;;;;;;34.23;17.20;;;;;;;;;;6244462;22;20830;-73
2022/03/07 07:13:01;;;;;;;30.90;18.27;;;;;;;;;;6247550;22;20831;-74
2022/03/07 07:15:42;;;;;;;48.97;19.80;;;;;;;;;;6247430;22;20429;-73
2022/03/07 07:18:09;;;;;;;38.40;19.20;;;;;;;;;;6246521;22;20459;-73
2022/03/07 07:20:45;;;;;;;33.73;18.73;;;;;;;;;;6246856;22;20451;-73
2022/03/07 07:23:21;;;;;;;45.47;20.00;;;;;;;;;;6246455;22;20467;-73
2022/03/07 07:25:51;;;;;;;35.20;16.50;;;;;;;;;;6245405;22;20408;-72
2022/03/07 07:28:22;;;;;;;34.10;17.87;;;;;;;;;;6246763;22;20437;-73
2022/03/07 07:30:55;;;;;;;30.57;19.07;;;;;;;;;;6245488;22;20477;-73
2022/03/07 07:33:26;;;;;;;32.20;17.67;;;;;;;;;;6246670;22;20487;-73
2022/03/07 07:35:57;;;;;;;34.27;17.30;;;;;;;;;;6245436;22;20480;-73
2022/03/07 07:38:31;;;;;;;37.13;20.00;;;;;;;;;;6246050;22;20977;-73
2022/03/07 07:41:13;;;;;;;27.07;16.73;;;;;;;;;;6246411;22;20424;-74
2022/03/07 07:44:00;;;;;;;42.87;18.90;;;;;;;;;;6246541;22;20911;-72
2022/03/07 07:46:49;;;;;;;32.17;17.77;;;;;;;;;;6245795;22;20850;-73
2022/03/07 07:49:52;;;;;;;34.30;15.63;;;;;;;;;;6231244;22;20416;-72
2022/03/07 07:58:25;;;;;;;37.70;18.57;;;;;;;;;;6229613;22;20432;-72
2022/03/07 08:01:29;;;;;;;;;;;;;;;;;;;;;
2022/03/07 08:07:02;;;;;;;;;;;;;;;;;;;;;
2022/03/07 08:09:52;;;;;;;30.90;17.43;;;;;;;;;;6245975;22;20405;-73
2022/03/07 08:12:24;;;;;;;32.30;16.70;;;;;;;;;;6246423;22;20449;-73
2022/03/07 08:14:52;;;;;;;32.67;18.73;;;;;;;;;;6245312;22;20523;-73
2022/03/07 08:17:22;;;;;;;32.80;19.60;;;;;;;;;;6245038;22;20417;-74
2022/03/07 08:19:53;;;;;;;38.97;18.43;;;;;;;;;;6245167;22;20421;-74
2022/03/07 08:22:22;;;;;;;37.10;18.70;;;;;;;;;;6246062;22;20486;-72
2022/03/07 08:24:50;;;;;;;30.67;18.87;;;;;;;;;;6245929;22;20831;-73
2022/03/07 08:27:34;;;;;;;;;;;;;;;;;;;;;
2022/03/07 08:30:06;;;;;;;33.00;18.90;;;;;;;;;;6244808;22;20397;-74
2022/03/07 08:32:34;;;;;;;23.60;15.17;;;;;;;;;;6245078;22;20548;-72
2022/03/07 08:35:06;;;;;;;33.73;20.30;;;;;;;;;;6246683;22;20428;-72
2022/03/07 08:37:35;;;;;;;25.47;15.87;;;;;;;;;;6246061;22;20500;-73
2022/03/07 08:40:05;;;;;;;38.10;20.10;;;;;;;;;;6245068;22;20408;-72
2022/03/07 08:42:34;;;;;;;45.30;21.70;;;;;;;;;;6244161;22;20456;-75
2022/03/07 08:45:02;;;;;;;41.70;20.50;;;;;;;;;;6244999;22;20410;-73
2022/03/07 08:47:32;;;;;;;44.47;22.93;;;;;;;;;;6244402;22;20444;-74
2022/03/07 08:50:11;;;;;;;38.53;21.50;;;;;;;;;;6247829;22;20413;-74
2022/03/07 08:55:43;;;;;;;39.27;19.43;;;;;;;;;;6246291;22;20432;-74
2022/03/07 08:58:15;;;;;;;34.90;20.43;;;;;;;;;;6247448;22;20419;-74
2022/03/07 09:00:46;;;;;;;31.20;17.73;;;;;;;;;;6247436;22;20417;-72
2022/03/07 09:03:16;;;;;;;33.97;20.97;;;;;;;;;;6248356;22;20405;-74
2022/03/07 09:05:52;;;;;;;29.27;18.53;;;;;;;;;;6247790;22;20492;-73
2022/03/07 09:08:24;;;;;;;30.50;18.03;;;;;;;;;;6248637;22;20673;-73
2022/03/07 09:10:52;;;;;;;33.77;21.00;;;;;;;;;;6245950;22;20946;-75
2022/03/07 09:13:23;;;;;;;35.13;20.70;;;;;;;;;;6246349;22;20783;-73
2022/03/07 09:16:25;;;;;;;34.57;19.10;;;;;;;;;;6244534;22;20409;-72
2022/03/07 09:18:59;;;;;;;28.87;18.40;;;;;;;;;;6245772;22;20423;-72
2022/03/07 09:21:27;;;;;;;28.17;18.07;;;;;;;;;;6246324;22;20424;-70
2022/03/07 09:24:03;;;;;;;32.60;18.23;;;;;;;;;;6245896;22;20519;-73
2022/03/07 09:26:34;;;;;;;27.20;17.40;;;;;;;;;;6246293;22;20448;-73
2022/03/07 09:29:03;;;;;;;30.30;18.70;;;;;;;;;;6246607;22;20426;-72
2022/03/07 09:31:33;;;;;;;27.50;16.53;;;;;;;;;;6247501;22;20445;-73
2022/03/07 09:34:02;;;;;;;21.60;13.07;;;;;;;;;;6247852;22;20427;-72
2022/03/07 09:36:36;;;;;;;20.60;14.30;;;;;;;;;;6247990;22;20862;-71
2022/03/07 09:39:07;;;;;;;14.73;10.00;;;;;;;;;;6247721;22;20420;-72
2022/03/07 09:41:41;;;;;;;15.50;8.67;;;;;;;;;;6246932;22;20475;-73
2022/03/07 09:44:09;;;;;;;12.20;7.47;;;;;;;;;;6248084;22;20432;-73
2022/03/07 09:46:37;;;;;;;16.43;8.90;;;;;;;;;;6247362;22;20417;-71
2022/03/07 09:49:06;;;;;;;10.37;7.80;;;;;;;;;;6248674;22;20417;-72
2022/03/07 09:54:30;;;;;;;13.03;7.93;;;;;;;;;;6246533;22;20825;-73
2022/03/07 09:57:01;;;;;;;11.40;6.80;;;;;;;;;;6247189;22;21091;-73
2022/03/07 09:59:31;;;;;;;10.93;7.13;;;;;;;;;;6247909;22;20447;-72
2022/03/07 10:02:01;;;;;;;12.87;6.63;;;;;;;;;;6247895;22;20524;-72
2022/03/07 10:04:30;;;;;;;16.30;5.00;;;;;;;;;;6248611;22;20424;-72
2022/03/07 10:07:06;;;;;;;9.63;5.13;;;;;;;;;;6248328;22;20445;-72
2022/03/07 10:09:36;;;;;;;8.90;6.13;;;;;;;;;;6246245;22;20412;-72
2022/03/07 10:12:04;;;;;;;18.03;4.53;;;;;;;;;;6248120;22;20448;-73
2022/03/07 10:14:42;;;;;;;8.80;4.43;;;;;;;;;;6246481;22;21107;-73
2022/03/07 10:17:33;;;;;;;10.90;4.17;;;;;;;;;;6245752;22;20428;-72
2022/03/07 10:20:19;;;;;;;8.03;4.20;;;;;;;;;;6216127;22;20417;-74
2022/03/07 10:23:02;;;;;;;5.67;3.50;;;;;;;;;;6247549;22;20409;-73
2022/03/07 10:26:00;;;;;;;5.97;3.70;;;;;;;;;;6248001;22;20525;-73
2022/03/07 10:28:37;;;;;;;7.00;3.37;;;;;;;;;;6246262;22;20508;-72
2022/03/07 10:31:18;;;;;;;6.27;4.13;;;;;;;;;;6246802;22;20419;-74
2022/03/07 10:36:48;;;;;;;5.80;3.87;;;;;;;;;;6237095;22;20461;-71
2022/03/07 10:39:22;;;;;;;7.10;3.80;;;;;;;;;;6246802;22;20393;-72
2022/03/07 10:42:02;;;;;;;7.10;3.87;;;;;;;;;;6246772;22;20455;-73
2022/03/07 10:44:37;;;;;;;8.83;5.50;;;;;;;;;;6247864;22;20771;-72
2022/03/07 10:47:09;;;;;;;8.80;4.93;;;;;;;;;;6246547;22;20415;-73
2022/03/07 10:49:44;;;;;;;9.43;5.17;;;;;;;;;;6246992;22;20878;-73
2022/03/07 10:52:29;;;;;;;6.40;4.20;;;;;;;;;;6246548;22;20964;-72
2022/03/07 10:58:13;;;;;;;6.77;5.33;;;;;;;;;;6244995;22;20707;-72
2022/03/07 11:00:59;;;;;;;10.47;5.17;;;;;;;;;;6247013;22;20831;-74
2022/03/07 11:06:40;;;;;;;6.63;4.00;;;;;;;;;;6121062;23;20436;-75
2022/03/07 11:15:25;;;;;;;5.33;3.97;;;;;;;;;;6119713;23;20425;-74
2022/03/07 11:18:00;;;;;;;7.13;4.70;;;;;;;;;;6180497;22;20559;-73
2022/03/07 11:20:39;;;;;;;4.87;3.33;;;;;;;;;;6246422;22;20447;-73
2022/03/07 11:23:30;;;;;;;5.27;3.40;;;;;;;;;;6245911;22;20422;-74
2022/03/07 11:26:04;;;;;;;10.40;4.07;;;;;;;;;;6246322;22;20458;-74
2022/03/07 11:28:33;;;;;;;6.37;3.93;;;;;;;;;;6247077;22;20436;-74
2022/03/07 11:33:59;;;;;;;9.57;4.37;;;;;;;;;;6247273;22;20499;-73
2022/03/07 11:36:28;;;;;;;5.07;3.73;;;;;;;;;;6246378;22;20882;-73
2022/03/07 11:39:20;;;;;;;;;;;;;;;;;;;;;
2022/03/07 11:41:49;;;;;;;5.33;4.07;;;;;;;;;;6242890;22;20504;-74
2022/03/07 11:44:31;;;;;;;8.00;4.60;;;;;;;;;;6246466;22;20409;-72
2022/03/07 11:47:09;;;;;;;8.40;3.90;;;;;;;;;;6245907;22;20511;-74
2022/03/07 11:49:44;;;;;;;4.70;3.50;;;;;;;;;;6246418;22;20423;-74
2022/03/07 11:52:24;;;;;;;8.10;4.37;;;;;;;;;;6246685;22;20448;-72
2022/03/07 11:55:00;;;;;;;7.20;3.63;;;;;;;;;;6247481;22;20714;-73
2022/03/07 11:57:34;;;;;;;4.50;3.00;;;;;;;;;;6245694;22;20427;-73
2022/03/07 12:00:18;;;;;;;4.57;3.20;;;;;;;;;;6246133;22;20413;-73
2022/03/07 12:02:49;;;;;;;5.70;3.80;;;;;;;;;;6245852;22;20479;-72
2022/03/07 12:05:27;;;;;;;5.63;3.67;;;;;;;;;;6247575;22;20476;-73
2022/03/07 12:08:14;;;;;;;6.77;4.20;;;;;;;;;;6245855;22;20421;-73
2022/03/07 12:10:59;;;;;;;8.87;4.80;;;;;;;;;;6247094;22;20432;-73
2022/03/07 12:13:38;;;;;;;6.40;4.60;;;;;;;;;;6247123;22;20445;-73
2022/03/07 12:16:27;;;;;;;8.90;5.17;;;;;;;;;;6248073;22;20430;-73
2022/03/07 12:19:00;;;;;;;4.80;2.83;;;;;;;;;;6247060;22;20421;-74
2022/03/07 12:21:30;;;;;;;3.70;1.93;;;;;;;;;;6245923;22;20487;-74
2022/03/07 12:23:58;;;;;;;3.50;2.10;;;;;;;;;;6244410;22;20417;-75
2022/03/07 12:26:39;;;;;;;2.13;1.40;;;;;;;;;;6246087;22;20496;-73
2022/03/07 12:29:14;;;;;;;4.03;2.10;;;;;;;;;;6247452;22;20425;-73
2022/03/07 12:32:01;;;;;;;4.13;2.23;;;;;;;;;;6244685;22;20480;-73
2022/03/07 12:34:31;;;;;;;3.30;2.40;;;;;;;;;;6246306;22;20417;-73
2022/03/07 12:40:37;;;;;;;4.47;2.50;;;;;;;;;;6231791;22;20461;-73
2022/03/07 12:43:08;;;;;;;3.00;1.90;;;;;;;;;;6233980;22;20434;-73
2022/03/07 12:45:57;;;;;;;3.73;1.60;;;;;;;;;;6245008;22;20409;-74
2022/03/07 12:48:43;;;;;;;2.77;1.17;;;;;;;;;;6245088;22;20440;-72
2022/03/07 12:51:16;;;;;;;3.63;1.47;;;;;;;;;;6244716;22;20436;-73
2022/03/07 12:54:17;;;;;;;2.10;1.13;;;;;;;;;;6245393;22;20454;-72
2022/03/07 12:57:12;;;;;;;;;;;;;;;;;;;;;
2022/03/07 13:00:00;;;;;;;4.53;1.70;;;;;;;;;;6243334;22;20716;-72
2022/03/07 13:06:09;;;;;;;4.63;2.50;;;;;;;;;;6240721;22;20516;-73
2022/03/07 13:08:51;;;;;;;3.63;2.17;;;;;;;;;;6245312;22;20459;-73
2022/03/07 13:11:37;;;;;;;3.67;2.23;;;;;;;;;;6245723;22;20413;-73
2022/03/07 13:14:23;;;;;;;5.10;2.60;;;;;;;;;;6246238;22;20435;-73
2022/03/07 13:17:10;;;;;;;4.27;2.50;;;;;;;;;;6244831;22;20430;-74
2022/03/07 13:25:30;;;;;;;2.37;1.30;;;;;;;;;;6233834;22;20429;-73
2022/03/07 13:28:17;;;;;;;2.80;1.80;;;;;;;;;;6246517;22;20421;-72
2022/03/07 13:34:17;;;;;;;2.27;1.30;;;;;;;;;;6095314;23;20747;-73
2022/03/07 13:37:02;;;;;;;;;;;;;;;;;;;;;
2022/03/07 13:39:36;;;;;;;2.70;1.60;;;;;;;;;;6243847;22;20560;-72
2022/03/07 13:42:15;;;;;;;2.57;1.50;;;;;;;;;;6246817;22;20886;-72
2022/03/07 13:45:07;;;;;;;3.47;2.00;;;;;;;;;;6242068;22;20428;-72
2022/03/07 13:47:39;;;;;;;3.27;1.87;;;;;;;;;;6245292;23;20824;-73
2022/03/07 13:50:24;;;;;;;2.90;1.73;;;;;;;;;;6248782;23;20850;-73
2022/03/07 13:53:12;;;;;;;3.63;2.10;;;;;;;;;;6244690;23;20843;-74
2022/03/07 13:58:34;;;;;;;3.00;1.73;;;;;;;;;;6244557;23;20413;-74
2022/03/07 14:01:07;;;;;;;5.40;2.57;;;;;;;;;;6245358;23;20469;-73
2022/03/07 14:03:41;;;;;;;3.70;1.40;;;;;;;;;;6246091;23;20898;-74
2022/03/07 14:06:46;;;;;;;14.60;5.93;;;;;;;;;;6245742;23;20417;-71
2022/03/07 14:09:43;;;;;;;;;;;;;;;;;;;;;
2022/03/07 14:18:02;;;;;;;3.40;1.67;;;;;;;;;;6244814;23;20428;-74
2022/03/07 14:20:40;;;;;;;2.50;1.73;;;;;;;;;;6244751;23;20417;-74
2022/03/07 14:23:24;;;;;;;3.20;1.40;;;;;;;;;;6245299;23;20425;-72
2022/03/07 14:26:01;;;;;;;2.60;1.80;;;;;;;;;;6245570;23;20397;-74
2022/03/07 14:31:29;;;;;;;2.50;1.77;;;;;;;;;;6207784;23;20440;-73
2022/03/07 14:34:06;;;;;;;3.23;1.93;;;;;;;;;;6245077;23;20862;-73
2022/03/07 14:36:45;;;;;;;4.40;1.57;;;;;;;;;;6245472;23;20764;-73
2022/03/07 14:39:22;;;;;;;4.60;1.67;;;;;;;;;;6245668;23;20423;-72
2022/03/07 14:41:53;;;;;;;2.53;1.60;;;;;;;;;;6245425;23;20378;-73
2022/03/07 14:44:23;;;;;;;2.50;1.63;;;;;;;;;;6244018;23;20416;-72
2022/03/07 14:47:03;;;;;;;5.57;2.20;;;;;;;;;;6244062;23;20753;-74
2022/03/07 14:49:52;;;;;;;2.47;1.60;;;;;;;;;;6243712;23;20831;-73
2022/03/07 14:52:22;;;;;;;2.47;1.27;;;;;;;;;;6243626;23;20492;-70
2022/03/07 14:55:09;;;;;;;3.20;2.07;;;;;;;;;;6244139;23;20770;-71
2022/03/07 14:57:47;;;;;;;2.53;1.40;;;;;;;;;;6243167;23;20471;-72
2022/03/07 15:00:30;;;;;;;2.40;1.70;;;;;;;;;;6243166;23;20527;-73
2022/03/07 15:03:07;;;;;;;2.60;1.27;;;;;;;;;;6243900;23;20433;-72
2022/03/07 15:05:40;;;;;;;1.67;0.97;;;;;;;;;;6244512;23;20433;-72
2022/03/07 15:08:15;;;;;;;3.07;1.87;;;;;;;;;;6244550;23;21123;-73
2022/03/07 15:10:43;;;;;;;2.07;1.03;;;;;;;;;;6244484;23;20829;-72
2022/03/07 15:13:13;;;;;;;2.70;1.40;;;;;;;;;;6244667;23;20436;-73
2022/03/07 15:15:45;;;;;;;3.60;1.30;;;;;;;;;;6245352;23;20831;-73
2022/03/07 15:18:20;;;;;;;2.03;1.20;;;;;;;;;;6245404;23;20405;-73
2022/03/07 15:20:57;;;;;;;3.00;2.10;;;;;;;;;;6245523;23;20428;-73
2022/03/07 15:23:32;;;;;;;5.03;2.30;;;;;;;;;;6245720;23;20390;-71
2022/03/07 15:26:01;;;;;;;3.17;1.50;;;;;;;;;;6245799;23;20413;-71
2022/03/07 15:28:41;;;;;;;2.07;1.10;;;;;;;;;;6247218;23;20389;-73
2022/03/07 15:31:12;;;;;;;2.30;1.00;;;;;;;;;;6246739;23;20467;-72
2022/03/07 15:33:51;;;;;;;21.93;11.13;;;;;;;;;;6244405;23;20425;-74
2022/03/07 15:36:25;;;;;;;4.83;2.40;;;;;;;;;;6246573;23;21101;-72
2022/03/07 15:38:56;;;;;;;2.90;1.47;;;;;;;;;;6246650;23;20762;-73
2022/03/07 15:48:05;;;;;;;3.13;1.37;;;;;;;;;;6246550;23;20870;-72
2022/03/07 15:50:45;;;;;;;2.67;1.50;;;;;;;;;;6247011;23;20377;-74
2022/03/07 15:53:23;;;;;;;4.10;1.30;;;;;;;;;;6244427;23;21111;-71
2022/03/07 15:55:54;;;;;;;5.20;1.77;;;;;;;;;;6244975;23;20435;-74
2022/03/07 15:58:26;;;;;;;2.67;0.90;;;;;;;;;;6244955;23;20444;-74
2022/03/07 16:03:43;;;;;;;1.77;0.73;;;;;;;;;;6243063;23;20906;-72
2022/03/07 16:06:27;;;;;;;6.90;2.17;;;;;;;;;;6245457;23;20409;-74
2022/03/07 16:09:01;;;;;;;3.43;1.43;;;;;;;;;;6244317;23;20481;-72
2022/03/07 16:11:29;;;;;;;3.60;1.50;;;;;;;;;;6244178;23;20819;-74
2022/03/07 16:14:34;;;;;;;16.93;6.30;;;;;;;;;;6244862;23;20417;-74
2022/03/07 16:20:16;;;;;;;3.73;1.30;;;;;;;;;;6245852;23;20416;-74
2022/03/07 16:22:53;;;;;;;1.83;0.90;;;;;;;;;;6244836;23;20423;-74
2022/03/07 16:25:22;;;;;;;2.00;1.07;;;;;;;;;;6245007;23;20374;-74